createdAt,value
2018-11-23T08:09:09.813Z,21.27
2018-11-23T08:11:38.862Z,21.57
2018-11-23T08:14:07.666Z,21.97
2018-11-23T08:16:36.568Z,23.00
2018-11-23T08:19:06.732Z,21.93
2018-11-23T08:21:36.535Z,22.03
2018-11-23T08:24:05.479Z,21.57
2018-11-23T08:26:35.384Z,20.70
2018-11-23T08:29:04.232Z,21.30
2018-11-23T08:31:32.933Z,21.00
2018-11-23T08:34:01.408Z,20.53
2018-11-23T08:36:29.936Z,22.47
2018-11-23T08:38:58.411Z,20.87
2018-11-23T08:41:26.887Z,21.60
2018-11-23T08:43:55.344Z,23.73
2018-11-23T08:46:23.998Z,20.83
2018-11-23T08:48:52.676Z,21.23
2018-11-23T08:51:21.180Z,20.87
2018-11-23T08:53:49.719Z,23.00
2018-11-23T08:56:18.250Z,24.17
2018-11-23T08:58:46.720Z,26.37
2018-11-23T09:01:15.278Z,25.30
2018-11-23T09:03:43.775Z,27.77
2018-11-23T09:06:12.335Z,30.03
2018-11-23T09:08:40.845Z,30.13
2018-11-23T09:11:09.383Z,29.60
2018-11-23T09:13:38.264Z,31.57
2018-11-23T09:16:07.290Z,31.27
2018-11-23T09:18:35.880Z,33.73
2018-11-23T09:21:04.463Z,33.43
2018-11-23T09:23:33.013Z,34.73
2018-11-23T09:26:01.552Z,36.13
2018-11-23T09:28:30.047Z,36.77
2018-11-23T09:30:58.770Z,33.47
2018-11-23T09:33:27.270Z,30.30
2018-11-23T09:35:55.794Z,29.33
2018-11-23T09:38:24.283Z,26.97
2018-11-23T09:40:52.826Z,25.87
2018-11-23T09:43:22.212Z,25.50
2018-11-23T09:45:50.777Z,25.13
2018-11-23T09:48:19.278Z,25.47
2018-11-23T09:50:47.802Z,22.37
2018-11-23T09:53:16.345Z,24.33
2018-11-23T09:55:44.859Z,22.87
2018-11-23T09:58:13.610Z,21.67
2018-11-23T10:00:42.151Z,23.60
2018-11-23T10:03:10.685Z,23.27
2018-11-23T10:05:39.192Z,21.87
2018-11-23T10:08:08.023Z,21.97
2018-11-23T10:10:36.507Z,22.50
2018-11-23T10:13:05.109Z,23.07
2018-11-23T10:15:34.551Z,23.67
2018-11-23T10:18:03.138Z,23.07
2018-11-23T10:20:32.671Z,22.53
2018-11-23T10:23:02.130Z,23.90
2018-11-23T10:25:31.964Z,23.67
2018-11-23T10:28:00.511Z,23.43
2018-11-23T10:30:31.153Z,23.87
2018-11-23T10:33:00.961Z,24.07
2018-11-23T10:35:29.606Z,24.03
2018-11-23T10:37:59.351Z,23.60
2018-11-23T10:40:29.642Z,23.47
2018-11-23T10:42:58.343Z,24.43
2018-11-23T10:45:28.292Z,23.17
2018-11-23T10:47:58.259Z,23.10
2018-11-23T10:50:28.355Z,23.53
2018-11-23T10:52:56.854Z,22.53
2018-11-23T10:55:26.940Z,23.27
2018-11-23T10:57:55.398Z,24.10
2018-11-23T11:00:28.974Z,22.93
2018-11-23T11:03:02.741Z,24.20
2018-11-23T11:05:41.382Z,22.90
2018-11-23T11:08:09.834Z,23.23
2018-11-23T11:10:38.264Z,23.67
2018-11-23T11:13:06.738Z,22.43
2018-11-23T11:15:35.150Z,23.90
2018-11-23T11:18:03.594Z,23.57
2018-11-23T11:20:32.039Z,24.77
2018-11-23T11:23:00.506Z,23.93
2018-11-23T11:25:28.952Z,24.27
2018-11-23T11:27:57.358Z,23.93
2018-11-23T11:30:25.827Z,23.73
2018-11-23T11:32:54.248Z,23.80
2018-11-23T11:35:22.728Z,23.37
2018-11-23T11:37:51.170Z,24.53
2018-11-23T11:40:20.359Z,22.50
2018-11-23T11:42:48.787Z,23.37
2018-11-23T11:45:18.370Z,22.87
2018-11-23T11:47:47.357Z,22.43
2018-11-23T11:50:16.008Z,22.90
2018-11-23T11:52:45.862Z,23.07
2018-11-23T11:55:15.716Z,22.87
2018-11-23T11:57:44.723Z,23.77
2018-11-23T12:00:27.636Z,23.50
2018-11-23T12:02:56.305Z,23.20
2018-11-23T12:05:24.754Z,23.03
2018-11-23T12:07:53.193Z,23.67
2018-11-23T12:10:23.253Z,23.80
2018-11-23T12:12:51.800Z,24.17
2018-11-23T12:15:20.256Z,25.33
2018-11-23T12:17:48.694Z,24.10
2018-11-23T12:20:18.480Z,24.17
2018-11-23T12:22:47.615Z,24.00
2018-11-23T12:25:16.567Z,24.40
2018-11-23T12:27:46.159Z,23.37
2018-11-23T12:30:16.415Z,23.67
2018-11-23T12:32:45.976Z,23.93
2018-11-23T12:35:15.269Z,25.20
2018-11-23T12:37:43.747Z,24.43
2018-11-23T12:40:13.570Z,24.87
2018-11-23T12:42:42.267Z,24.43
2018-11-23T12:45:12.895Z,24.27
2018-11-23T12:47:41.391Z,24.77
2018-11-23T12:50:14.867Z,23.80
2018-11-23T12:52:43.314Z,24.17
2018-11-23T12:55:12.315Z,23.53
2018-11-23T12:57:41.243Z,24.63
2018-11-23T13:00:23.798Z,23.03
2018-11-23T13:02:54.772Z,24.63
2018-11-23T13:05:24.420Z,25.90
2018-11-23T13:07:53.860Z,26.10
2018-11-23T13:10:23.523Z,25.27
2018-11-23T13:12:52.224Z,23.97
2018-11-23T13:15:20.746Z,25.17
2018-11-23T13:17:49.685Z,25.43
2018-11-23T13:20:18.323Z,26.13
2018-11-23T13:22:46.834Z,24.63
2018-11-23T13:25:17.500Z,25.77
2018-11-23T13:27:46.082Z,25.37
2018-11-23T13:30:21.930Z,25.40
2018-11-23T13:32:50.363Z,26.10
2018-11-23T13:35:19.475Z,24.03
2018-11-23T13:37:47.931Z,24.20
2018-11-23T13:40:17.725Z,25.33
2018-11-23T13:42:46.587Z,24.40
2018-11-23T13:45:16.402Z,24.90
2018-11-23T13:47:44.877Z,24.77
2018-11-23T13:50:14.647Z,25.37
2018-11-23T13:52:44.142Z,24.90
2018-11-23T13:55:12.611Z,23.63
2018-11-23T13:57:41.051Z,25.10
2018-11-23T14:00:12.053Z,23.67
2018-11-23T14:02:40.580Z,25.33
2018-11-23T14:05:11.666Z,26.20
2018-11-23T14:07:40.390Z,24.57
2018-11-23T14:10:10.673Z,24.63
2018-11-23T14:12:39.132Z,22.17
2018-11-23T14:15:10.102Z,24.00
2018-11-23T14:17:38.700Z,25.43
2018-11-23T14:20:08.950Z,24.33
2018-11-23T14:22:37.595Z,24.43
2018-11-23T14:25:06.506Z,24.90
2018-11-23T14:27:35.015Z,23.90
2018-11-23T14:30:03.516Z,25.13
2018-11-23T14:32:32.005Z,24.70
2018-11-23T14:35:00.416Z,24.10
2018-11-23T14:37:28.856Z,23.80
2018-11-23T14:39:57.326Z,24.43
2018-11-23T14:42:25.822Z,25.97
2018-11-23T14:44:54.336Z,25.27
2018-11-23T14:47:22.926Z,24.10
2018-11-23T14:49:51.453Z,25.73
2018-11-23T14:52:19.964Z,24.90
2018-11-23T14:54:48.427Z,25.70
2018-11-23T14:57:17.414Z,24.07
2018-11-23T14:59:46.062Z,26.23
2018-11-23T15:02:14.853Z,26.63
2018-11-23T15:04:44.185Z,26.53
2018-11-23T15:07:13.040Z,24.53
2018-11-23T15:09:41.799Z,25.03
2018-11-23T15:12:10.629Z,27.47
2018-11-23T15:14:39.442Z,25.70
2018-11-23T15:17:08.188Z,25.33
2018-11-23T15:19:37.486Z,26.27
2018-11-23T15:22:06.801Z,27.63
2018-11-23T15:24:37.250Z,27.87
2018-11-23T15:27:06.045Z,27.03
2018-11-23T15:29:34.884Z,26.87
2018-11-23T15:32:03.502Z,27.10
2018-11-23T15:34:32.318Z,26.83
2018-11-23T15:37:01.015Z,28.00
2018-11-23T15:39:30.771Z,27.00
2018-11-23T15:42:02.834Z,26.70
2018-11-23T15:44:31.464Z,27.93
2018-11-23T15:47:00.092Z,27.60
2018-11-23T15:49:28.600Z,27.13
2018-11-23T15:51:57.187Z,27.10
2018-11-23T15:54:25.764Z,27.83
2018-11-23T15:56:54.381Z,28.37
2018-11-23T15:59:22.960Z,27.17
2018-11-23T16:01:51.568Z,25.93
2018-11-23T16:04:20.142Z,26.70
2018-11-23T16:06:48.700Z,26.83
2018-11-23T16:09:17.271Z,28.57
2018-11-23T16:11:45.851Z,25.57
2018-11-23T16:14:14.447Z,27.80
2018-11-23T16:16:42.999Z,27.73
2018-11-23T16:19:11.547Z,28.03
2018-11-23T16:21:40.147Z,26.60
2018-11-23T16:24:08.715Z,24.83
2018-11-23T16:26:37.255Z,26.03
2018-11-23T16:29:05.796Z,26.50
2018-11-23T16:31:34.391Z,26.00
2018-11-23T16:34:02.964Z,27.30
2018-11-23T16:36:31.609Z,25.77
2018-11-23T16:39:00.240Z,24.80
2018-11-23T16:41:28.943Z,26.27
2018-11-23T16:43:57.631Z,26.77
2018-11-23T16:46:26.304Z,27.27
2018-11-23T16:48:54.936Z,26.47
2018-11-23T16:51:23.651Z,26.53
2018-11-23T16:53:52.298Z,26.50
2018-11-23T16:56:20.910Z,25.13
2018-11-23T16:58:49.578Z,23.93
2018-11-23T17:01:18.198Z,24.80
2018-11-23T17:03:46.835Z,25.10
2018-11-23T17:06:15.492Z,24.33
2018-11-23T17:08:44.152Z,24.43
2018-11-23T17:11:12.799Z,23.43
2018-11-23T17:13:41.487Z,23.10
2018-11-23T17:16:10.076Z,22.73
2018-11-23T17:18:38.775Z,22.47
2018-11-23T17:21:07.402Z,23.20
2018-11-23T17:23:36.081Z,22.80
2018-11-23T17:26:04.768Z,21.50
2018-11-23T17:28:33.598Z,20.97
2018-11-23T17:31:02.232Z,18.47
2018-11-23T17:33:30.985Z,20.63
2018-11-23T17:35:59.680Z,20.73
2018-11-23T17:38:28.442Z,20.47
2018-11-23T17:40:57.148Z,21.50
2018-11-23T17:43:25.901Z,19.40
2018-11-23T17:45:54.551Z,19.13
2018-11-23T17:48:23.276Z,19.80
2018-11-23T17:50:52.017Z,18.17
2018-11-23T17:53:20.726Z,18.93
2018-11-23T17:55:49.386Z,18.17
2018-11-23T17:58:18.177Z,17.67
2018-11-23T18:00:46.860Z,18.67
2018-11-23T18:03:15.672Z,18.17
2018-11-23T18:05:44.368Z,18.00
2018-11-23T18:08:13.095Z,17.77
2018-11-23T18:10:41.836Z,17.20
2018-11-23T18:13:10.599Z,18.20
2018-11-23T18:15:39.321Z,17.10
2018-11-23T18:18:08.045Z,16.70
2018-11-23T18:20:36.900Z,17.17
2018-11-23T18:23:06.378Z,16.97
2018-11-23T18:25:37.642Z,18.50
2018-11-23T18:28:06.460Z,16.17
2018-11-23T18:30:35.321Z,16.67
2018-11-23T18:33:07.863Z,16.93
2018-11-23T18:35:36.781Z,17.83
2018-11-23T18:38:05.666Z,17.73
2018-11-23T18:40:37.541Z,16.53
2018-11-23T18:43:03.280Z,16.60
2018-11-23T18:45:32.026Z,17.93
2018-11-23T18:48:00.787Z,14.93
2018-11-23T18:50:29.512Z,17.03
2018-11-23T18:52:58.211Z,17.23
2018-11-23T18:55:27.038Z,15.80
2018-11-23T18:57:55.688Z,16.93
2018-11-23T19:00:24.441Z,16.33
2018-11-23T19:02:53.232Z,15.90
2018-11-23T19:05:23.516Z,16.67
2018-11-23T19:07:52.276Z,17.33
2018-11-23T19:10:20.973Z,16.23
2018-11-23T19:12:49.641Z,17.83
2018-11-23T19:15:25.111Z,16.43
2018-11-23T19:17:47.799Z,16.73
2018-11-23T19:20:19.353Z,16.57
2018-11-23T19:22:52.165Z,16.67
2018-11-23T19:25:20.955Z,16.80
2018-11-23T19:27:49.707Z,14.73
2018-11-23T19:30:19.608Z,15.40
2018-11-23T19:32:48.397Z,16.03
2018-11-23T19:35:17.206Z,16.20
2018-11-23T19:37:46.028Z,16.00
2018-11-23T19:40:15.688Z,17.63
2018-11-23T19:42:45.139Z,16.87
2018-11-23T19:45:17.983Z,16.90
2018-11-23T19:47:46.830Z,17.80
2018-11-23T19:53:08.876Z,16.37
2018-11-23T19:55:37.993Z,16.87
2018-11-23T19:58:07.787Z,16.80
2018-11-23T20:00:36.636Z,17.10
2018-11-23T20:03:05.724Z,16.70
2018-11-23T20:05:34.559Z,16.40
2018-11-23T20:08:03.767Z,17.37
2018-11-23T20:10:32.794Z,16.83
2018-11-23T20:13:01.733Z,16.43
2018-11-23T20:15:30.504Z,17.63
2018-11-23T20:21:57.529Z,18.00
2018-11-23T20:30:18.885Z,16.73
2018-11-23T20:32:47.857Z,18.10
2018-11-23T20:35:17.914Z,18.00
2018-11-23T20:37:46.725Z,17.03
2018-11-23T20:40:17.789Z,18.97
2018-11-23T20:42:46.656Z,17.43
2018-11-23T20:45:15.593Z,18.67
2018-11-23T20:47:44.328Z,18.37
2018-11-23T20:50:14.093Z,19.23
2018-11-23T20:52:42.768Z,17.13
2018-11-23T20:55:16.218Z,19.63
2018-11-23T20:57:45.112Z,17.80
2018-11-23T21:00:17.192Z,19.63
2018-11-23T21:02:55.135Z,19.70
2018-11-23T21:08:18.552Z,18.80
2018-11-23T21:10:47.303Z,20.57
2018-11-23T21:13:16.041Z,18.57
2018-11-23T21:15:44.843Z,19.87
2018-11-23T21:18:13.778Z,21.30
2018-11-23T21:20:42.660Z,22.00
2018-11-23T21:29:15.797Z,19.47
2018-11-23T21:31:44.536Z,20.50
2018-11-23T21:34:13.368Z,20.97
2018-11-23T21:36:47.307Z,20.30
2018-11-23T21:39:16.625Z,18.83
2018-11-23T21:46:49.275Z,21.17
2018-11-23T21:49:18.099Z,21.97
2018-11-23T21:51:47.029Z,20.37
2018-11-23T21:54:15.880Z,21.93
2018-11-23T21:56:44.744Z,22.63
2018-11-23T21:59:13.755Z,20.73
2018-11-23T22:01:42.710Z,21.53
2018-11-23T22:04:11.606Z,20.97
2018-11-23T22:06:40.486Z,22.27
2018-11-23T22:09:09.319Z,20.63
2018-11-23T22:11:38.178Z,21.30
2018-11-23T22:14:06.951Z,22.83
2018-11-23T22:16:35.784Z,21.43
2018-11-23T22:19:04.767Z,21.73
2018-11-23T22:21:33.491Z,21.77
2018-11-23T22:24:02.345Z,22.17
2018-11-23T22:26:31.171Z,22.17
2018-11-23T22:29:00.173Z,23.23
2018-11-23T22:31:29.418Z,24.00
2018-11-23T22:40:20.655Z,23.30
2018-11-23T22:42:58.266Z,23.80
2018-11-23T22:45:27.439Z,22.87
2018-11-23T22:51:40.189Z,23.53
2018-11-23T22:57:21.913Z,25.07
2018-11-23T22:59:50.880Z,24.13
2018-11-23T23:02:19.692Z,25.73
2018-11-23T23:04:48.469Z,25.97
2018-11-23T23:07:17.225Z,24.27
2018-11-23T23:09:46.037Z,25.80
2018-11-23T23:12:14.852Z,27.23
2018-11-23T23:14:43.664Z,28.23
2018-11-23T23:17:12.430Z,26.63
2018-11-23T23:19:41.179Z,27.10
2018-11-23T23:22:10.131Z,28.03
2018-11-23T23:24:39.014Z,26.97
2018-11-23T23:27:07.927Z,26.77
2018-11-23T23:29:36.614Z,27.03
2018-11-23T23:32:05.448Z,30.23
2018-11-23T23:34:34.079Z,27.90
2018-11-23T23:37:02.659Z,28.77
2018-11-23T23:39:31.288Z,27.37
2018-11-23T23:41:59.840Z,29.00
2018-11-23T23:44:28.553Z,29.13
2018-11-23T23:46:57.120Z,27.67
2018-11-23T23:49:25.641Z,28.47
2018-11-23T23:51:54.193Z,27.03
2018-11-23T23:54:22.769Z,28.80
2018-11-23T23:56:51.271Z,29.73
2018-11-23T23:59:19.918Z,30.17
